Time;durP1;ratioP1;P1;durP2;ratioP2;P2;SDS_P1;SDS_P2;PMS_P1;PMS_P2;Temp;Humidity;BMP_temperature;BMP_pressure;BME280_temperature;BME280_humidity;BME280_pressure;Samples;Min_cycle;Max_cycle;Signal;HPM_P1;HPM_P2
2023/01/04 00:00:17;;;;;;;4.55;4.00;;;;;;;1.55;100.00;97006.53;5004681;28;25005;-74
2023/01/04 00:02:45;;;;;;;4.77;3.60;;;;;;;1.63;100.00;97013.28;4997954;28;24534;-73
2023/01/04 00:05:11;;;;;;;6.38;3.83;;;;;;;1.50;100.00;97008.28;4998018;28;24448;-73
2023/01/04 00:07:38;;;;;;;17.00;11.48;;;;;;;1.35;100.00;97002.41;5005860;28;24433;-73
2023/01/04 00:10:05;;;;;;;20.90;12.90;;;;;;;1.19;100.00;97000.84;5000181;28;24437;-73
2023/01/04 00:12:31;;;;;;;8.13;5.68;;;;;;;1.10;100.00;97006.81;4997604;28;24436;-73
2023/01/04 00:14:58;;;;;;;4.93;4.30;;;;;;;0.96;100.00;97001.81;5001713;28;24436;-73
2023/01/04 00:17:24;;;;;;;5.85;4.32;;;;;;;0.92;100.00;96995.00;5005429;28;24457;-73
2023/01/04 00:19:52;;;;;;;7.00;4.50;;;;;;;0.95;100.00;97001.81;5006717;28;25017;-73
2023/01/04 00:22:19;;;;;;;5.50;4.47;;;;;;;0.81;100.00;97003.56;4998216;28;24437;-73
2023/01/04 00:24:45;;;;;;;4.32;3.80;;;;;;;0.75;100.00;96984.06;4999898;28;24436;-74
2023/01/04 00:27:12;;;;;;;4.00;3.58;;;;;;;0.84;100.00;96984.00;5003149;28;24429;-74
2023/01/04 00:29:38;;;;;;;4.70;3.60;;;;;;;1.01;100.00;96976.28;5003959;28;24447;-73
2023/01/04 00:32:04;;;;;;;6.07;4.27;;;;;;;0.81;100.00;96973.81;5004084;28;24444;-73
2023/01/04 00:34:31;;;;;;;6.32;4.28;;;;;;;0.60;100.00;96976.50;4997360;28;25033;-73
2023/01/04 00:36:59;;;;;;;6.13;4.45;;;;;;;0.49;100.00;96976.53;5005619;28;24444;-73
2023/01/04 00:39:25;;;;;;;6.32;4.07;;;;;;;0.40;100.00;96979.94;5007580;28;24468;-74
2023/01/04 00:42:03;;;;;;;5.43;4.45;;;;;;;0.40;100.00;96987.59;5006172;28;24445;-74
2023/01/04 00:44:31;;;;;;;6.90;4.50;;;;;;;0.44;100.00;96980.78;5006780;28;25066;-73
2023/01/04 00:46:58;;;;;;;32.53;5.13;;;;;;;0.47;100.00;96970.59;5010110;28;24445;-73
2023/01/04 00:49:25;;;;;;;10.70;4.50;;;;;;;0.48;100.00;96959.53;5001934;28;24432;-73
2023/01/04 00:51:51;;;;;;;11.88;4.50;;;;;;;0.50;100.00;96962.94;5008348;28;24444;-73
2023/01/04 00:54:20;;;;;;;12.02;4.93;;;;;;;0.56;100.00;96959.53;4999942;28;24440;-74
2023/01/04 00:56:47;;;;;;;7.18;4.43;;;;;;;0.62;100.00;96952.66;5009360;28;24440;-73
2023/01/04 00:59:16;;;;;;;26.17;5.30;;;;;;;0.62;100.00;96955.22;5001862;28;24450;-74
2023/01/04 01:01:42;;;;;;;29.50;5.33;;;;;;;0.56;100.00;96951.88;5000071;28;24448;-73
2023/01/04 01:04:12;;;;;;;26.70;5.78;;;;;;;0.47;100.00;96953.59;5000095;28;24797;-74
2023/01/04 01:06:38;;;;;;;10.95;4.30;;;;;;;0.50;100.00;96957.81;5008256;28;24435;-73
2023/01/04 01:09:05;;;;;;;10.52;4.18;;;;;;;0.45;100.00;96949.38;5004983;28;24439;-73
2023/01/04 01:11:35;;;;;;;5.22;4.72;;;;;;;0.45;100.00;96960.41;5005810;28;24444;-73
2023/01/04 01:14:02;;;;;;;15.07;4.47;;;;;;;0.51;100.00;96953.56;5002457;28;24522;-73
2023/01/04 01:16:28;;;;;;;5.88;4.47;;;;;;;0.56;100.00;96962.06;5008668;28;24447;-73
2023/01/04 01:18:55;;;;;;;10.20;4.27;;;;;;;0.64;100.00;96956.06;5005810;28;24457;-74
2023/01/04 01:21:23;;;;;;;8.52;4.50;;;;;;;0.57;100.00;96963.75;5005360;28;24456;-74
2023/01/04 01:23:50;;;;;;;9.23;4.60;;;;;;;0.64;100.00;96958.63;5005224;28;24552;-73
2023/01/04 01:26:18;;;;;;;7.47;4.22;;;;;;;0.86;100.00;96958.50;4998522;28;24429;-74
2023/01/04 01:28:47;;;;;;;6.70;4.10;;;;;;;0.92;100.00;96953.34;5004820;28;24459;-73
2023/01/04 01:31:15;;;;;;;6.32;3.88;;;;;;;0.87;100.00;96960.19;5001813;28;24444;-74
2023/01/04 01:33:43;;;;;;;7.78;4.30;;;;;;;0.75;100.00;96960.28;5000430;28;24437;-74
2023/01/04 01:36:10;;;;;;;4.95;4.18;;;;;;;0.79;100.00;96951.75;5003139;28;24559;-74
2023/01/04 01:38:37;;;;;;;3.95;3.55;;;;;;;0.88;100.00;96955.06;5001021;28;24457;-73
2023/01/04 01:41:04;;;;;;;4.28;3.60;;;;;;;1.04;100.00;96957.53;4999360;28;24440;-74
2023/01/04 01:43:51;;;;;;;3.97;3.25;;;;;;;1.14;100.00;96954.06;5002672;28;24447;-74
2023/01/04 01:46:22;;;;;;;6.50;3.50;;;;;;;1.17;100.00;96962.56;5007290;28;24437;-76
2023/01/04 01:48:49;;;;;;;4.07;3.67;;;;;;;1.17;100.00;96959.16;5003762;28;24510;-73
2023/01/04 01:51:16;;;;;;;5.20;3.45;;;;;;;1.14;100.00;96959.16;4998715;28;25009;-74
2023/01/04 01:53:45;;;;;;;5.32;3.80;;;;;;;0.99;100.00;96960.13;5006289;28;24440;-74
2023/01/04 01:56:12;;;;;;;5.55;3.70;;;;;;;0.86;100.00;96958.50;5002752;28;24434;-73
2023/01/04 01:58:43;;;;;;;4.73;3.87;;;;;;;0.77;100.00;96959.38;5000231;28;24456;-73
2023/01/04 02:01:11;;;;;;;4.55;3.60;;;;;;;0.84;100.00;96957.66;4997885;28;24998;-73
2023/01/04 02:03:40;;;;;;;4.00;3.60;;;;;;;0.85;100.00;96955.09;5000349;28;24439;-73
2023/01/04 02:06:11;;;;;;;49.20;18.77;;;;;;;0.77;100.00;96958.53;5003258;28;24439;-73
2023/01/04 02:08:40;;;;;;;4.55;4.00;;;;;;;0.74;100.00;96956.84;4999411;28;24440;-73
2023/01/04 02:11:06;;;;;;;4.18;3.78;;;;;;;0.69;100.00;96950.94;5001270;28;24436;-73
2023/01/04 02:16:32;;;;;;;5.53;3.58;;;;;;;0.86;100.00;96938.94;5001199;28;24590;-73
2023/01/04 02:19:07;;;;;;;4.07;3.37;;;;;;;0.80;100.00;96941.53;5005983;28;24545;-74
2023/01/04 02:21:50;;;;;;;3.35;3.05;;;;;;;0.75;100.00;96938.16;5006887;28;25210;-73
2023/01/04 02:24:36;;;;;;;3.28;2.97;;;;;;;0.76;100.00;96932.19;5000829;28;24448;-74
2023/01/04 02:27:36;;;;;;;4.00;3.13;;;;;;;0.89;100.00;96932.97;4998916;28;24440;-73
2023/01/04 02:30:39;;;;;;;3.92;2.97;;;;;;;0.92;100.00;96925.28;5006504;28;24474;-73
2023/01/04 02:33:19;;;;;;;3.20;2.90;;;;;;;0.82;100.00;96927.06;5006155;28;24472;-73
2023/01/04 02:35:58;;;;;;;3.22;2.75;;;;;;;0.80;100.00;96910.09;4999548;28;24435;-73
2023/01/04 02:38:31;;;;;;;3.83;2.90;;;;;;;0.89;100.00;96915.09;5000145;28;24485;-73
2023/01/04 02:41:05;;;;;;;4.20;3.13;;;;;;;0.91;100.00;96918.50;5003774;28;24448;-73
2023/01/04 02:46:28;;;;;;;2.88;2.67;;;;;;;1.06;100.00;96909.91;4997561;28;24436;-74
2023/01/04 02:51:42;;;;;;;5.07;2.97;;;;;;;1.02;100.00;96910.78;4999357;28;24539;-73
2023/01/04 02:54:12;;;;;;;2.70;2.50;;;;;;;0.87;100.00;96902.38;5001879;28;24434;-74
2023/01/04 02:57:04;;;;;;;3.30;2.70;;;;;;;0.94;100.00;96891.28;4997461;28;24433;-74
2023/01/04 02:59:48;;;;;;;3.20;2.90;;;;;;;1.00;100.00;96889.53;5003547;28;24563;-73
2023/01/04 03:08:28;;;;;;;4.82;4.10;;;;;;;0.83;100.00;96890.50;4999313;28;24437;-74
2023/01/04 03:11:01;;;;;;;3.80;2.90;;;;;;;0.67;100.00;96882.13;5001038;28;24428;-74
2023/01/04 03:13:29;;;;;;;2.47;2.28;;;;;;;0.71;100.00;96888.88;4999042;28;24440;-73
2023/01/04 03:16:00;;;;;;;2.70;2.50;;;;;;;0.70;100.00;96886.34;4997829;28;24814;-73
2023/01/04 03:18:30;;;;;;;2.65;2.42;;;;;;;0.78;100.00;96886.28;5000086;28;24453;-73
2023/01/04 03:21:02;;;;;;;3.05;2.42;;;;;;;0.90;100.00;96883.66;4998472;28;25000;-74
2023/01/04 03:37:43;;;;;;;2.47;2.10;;;;;;;0.79;100.00;96893.09;5000945;28;24502;-73
2023/01/04 03:48:53;;;;;;;3.55;2.25;;;;;;;0.99;100.00;96870.84;5004004;28;24498;-73
2023/01/04 03:51:23;;;;;;;2.30;1.80;;;;;;;1.12;100.00;96859.69;5001662;28;24441;-74
2023/01/04 03:53:57;;;;;;;3.38;2.08;;;;;;;1.15;100.00;96863.91;4999776;28;24432;-73
2023/01/04 03:56:24;;;;;;;3.78;2.17;;;;;;;1.23;100.00;96851.94;5001200;28;24425;-74
2023/01/04 03:58:53;;;;;;;3.88;2.03;;;;;;;1.35;100.00;96845.88;5002714;28;24464;-73
2023/01/04 04:01:21;;;;;;;4.37;3.70;;;;;;;1.06;100.00;96854.63;4996895;28;24535;-73
2023/01/04 04:09:17;;;;;;;2.17;1.92;;;;;;;0.81;100.00;96845.47;5003003;28;24851;-74
2023/01/04 04:11:43;;;;;;;2.35;2.05;;;;;;;0.82;100.00;96840.38;5000239;28;24481;-74
2023/01/04 04:14:10;;;;;;;6.15;3.35;;;;;;;0.80;100.00;96839.53;5001244;28;24436;-74
2023/01/04 04:16:36;;;;;;;2.42;2.00;;;;;;;0.78;100.00;96846.34;5009312;28;24441;-74
2023/01/04 04:19:03;;;;;;;3.03;2.25;;;;;;;0.76;100.00;96850.59;5008006;28;24448;-74
2023/01/04 04:21:29;;;;;;;4.03;2.08;;;;;;;0.81;100.00;96853.97;5001921;28;24437;-73
2023/01/04 04:23:56;;;;;;;2.33;2.05;;;;;;;0.83;100.00;96846.31;5004886;28;24444;-73
2023/01/04 04:26:24;;;;;;;2.20;2.00;;;;;;;1.02;100.00;96830.00;5002888;28;24440;-73
2023/01/04 04:28:51;;;;;;;2.60;2.00;;;;;;;1.12;100.00;96836.72;5008411;28;24443;-73
2023/01/04 04:31:17;;;;;;;2.75;2.05;;;;;;;1.24;100.00;96830.66;5007157;28;24486;-74
2023/01/04 04:33:44;;;;;;;2.65;2.10;;;;;;;1.36;100.00;96822.88;5003216;28;24437;-74
2023/01/04 04:36:11;;;;;;;1.88;1.77;;;;;;;1.57;100.00;96821.81;5002476;28;24512;-73
2023/01/04 04:38:38;;;;;;;2.67;1.85;;;;;;;1.59;100.00;96822.63;5011506;28;24550;-74
2023/01/04 04:43:54;;;;;;;4.60;1.77;;;;;;;1.62;100.00;96816.66;5005323;28;24419;-75
2023/01/04 04:46:21;;;;;;;1.70;1.50;;;;;;;1.51;100.00;96818.47;5006693;28;25013;-74
2023/01/04 04:48:47;;;;;;;2.00;1.73;;;;;;;1.45;100.00;96806.66;4998647;28;24428;-73
2023/01/04 04:51:14;;;;;;;2.05;1.45;;;;;;;1.49;100.00;96802.34;5004606;28;24799;-73
2023/01/04 04:53:40;;;;;;;2.90;1.43;;;;;;;1.45;100.00;96804.94;5004856;28;24525;-73
2023/01/04 04:56:08;;;;;;;1.88;1.40;;;;;;;1.55;100.00;96812.47;5002828;28;24444;-73
2023/01/04 04:58:34;;;;;;;1.40;1.23;;;;;;;1.50;100.00;96799.78;4999896;28;24523;-73
2023/01/04 05:01:02;;;;;;;3.95;1.50;;;;;;;1.45;100.00;96804.09;5003753;28;24439;-73
2023/01/04 05:03:29;;;;;;;2.00;1.70;;;;;;;1.40;100.00;96811.78;5003016;28;24448;-74
2023/01/04 05:05:55;;;;;;;2.50;1.50;;;;;;;1.34;100.00;96801.66;5004291;28;24516;-74
2023/01/04 05:08:22;;;;;;;2.27;1.70;;;;;;;1.38;100.00;96799.91;5008146;28;24525;-73
2023/01/04 05:10:48;;;;;;;1.40;1.30;;;;;;;1.30;100.00;96807.66;5003465;28;24447;-73
2023/01/04 05:13:13;;;;;;;1.73;1.50;;;;;;;1.30;100.00;96812.75;5001309;28;24444;-73
2023/01/04 05:15:42;;;;;;;2.60;1.60;;;;;;;1.26;100.00;96815.31;5004653;28;24452;-73
2023/01/04 05:18:12;;;;;;;1.92;1.63;;;;;;;1.38;100.00;96803.31;4999815;28;24433;-73
2023/01/04 05:20:39;;;;;;;2.55;1.50;;;;;;;1.33;100.00;96792.28;5004022;28;24440;-73
2023/01/04 05:23:07;;;;;;;2.20;1.33;;;;;;;1.35;100.00;96798.22;5000910;28;24436;-76
2023/01/04 05:25:33;;;;;;;1.30;1.20;;;;;;;1.45;100.00;96802.38;5004165;28;24528;-74
2023/01/04 05:28:00;;;;;;;2.13;1.30;;;;;;;1.44;100.00;96797.28;5003082;28;24463;-74
2023/01/04 05:33:12;;;;;;;10.98;5.97;;;;;;;1.49;100.00;96792.13;5003004;28;24526;-74
2023/01/04 05:35:39;;;;;;;4.13;3.17;;;;;;;1.55;100.00;96794.59;5001735;28;24441;-72
2023/01/04 05:38:06;;;;;;;3.25;2.55;;;;;;;1.52;100.00;96790.41;5001154;28;24644;-72
2023/01/04 05:40:32;;;;;;;2.90;2.20;;;;;;;1.59;100.00;96802.22;5000795;28;24445;-72
2023/01/04 05:42:59;;;;;;;5.22;2.13;;;;;;;1.65;100.00;96802.16;5001760;28;24436;-72
2023/01/04 05:45:25;;;;;;;2.97;2.00;;;;;;;1.77;100.00;96802.88;5001598;28;24436;-72
2023/01/04 05:47:52;;;;;;;4.28;3.50;;;;;;;1.82;100.00;96806.25;5006937;28;24477;-72
2023/01/04 05:50:22;;;;;;;4.38;2.17;;;;;;;1.96;100.00;96799.22;5005313;28;24445;-72
2023/01/04 05:52:49;;;;;;;4.40;1.60;;;;;;;2.03;100.00;96797.44;5002562;28;25028;-72
2023/01/04 05:55:15;;;;;;;1.70;1.10;;;;;;;2.10;100.00;96793.94;5001072;28;24428;-72
2023/01/04 05:57:42;;;;;;;1.83;1.33;;;;;;;2.16;100.00;96787.06;5002965;28;24444;-72
2023/01/04 06:00:11;;;;;;;1.48;0.95;;;;;;;2.20;100.00;96782.75;4994668;28;24459;-72
2023/01/04 06:02:37;;;;;;;2.20;1.13;;;;;;;2.16;100.00;96776.81;5006751;28;24981;-72
2023/01/04 06:05:05;;;;;;;3.15;1.50;;;;;;;2.16;100.00;96778.53;5010216;28;24445;-72
2023/01/04 06:07:33;;;;;;;5.15;3.22;;;;;;;2.17;100.00;96775.94;5011422;28;24499;-72
2023/01/04 06:09:59;;;;;;;9.60;5.20;;;;;;;2.17;100.00;96782.78;5003181;28;24432;-73
2023/01/04 06:12:26;;;;;;;8.00;6.50;;;;;;;2.29;100.00;96780.03;4997040;28;24441;-72
2023/01/04 06:14:52;;;;;;;1.95;1.50;;;;;;;2.29;100.00;96782.59;4999567;28;24911;-72
2023/01/04 06:17:19;;;;;;;3.22;1.30;;;;;;;2.23;100.00;96792.09;5003060;28;24447;-71
2023/01/04 06:19:45;;;;;;;1.15;1.00;;;;;;;2.33;100.00;96783.41;5008134;28;25107;-72
2023/01/04 06:22:12;;;;;;;1.83;1.30;;;;;;;2.33;100.00;96781.69;4989166;28;24792;-70
2023/01/04 06:24:40;;;;;;;1.52;1.00;;;;;;;2.35;100.00;96769.75;4980832;28;25026;-72
2023/01/04 06:27:06;;;;;;;2.30;1.27;;;;;;;2.45;100.00;96783.25;4987435;28;24454;-72
2023/01/04 06:29:33;;;;;;;4.82;1.60;;;;;;;2.41;100.00;96779.88;4989186;28;24433;-72
2023/01/04 06:31:59;;;;;;;1.80;1.20;;;;;;;2.41;100.00;96781.56;4989558;28;24448;-73
2023/01/04 06:34:26;;;;;;;1.95;1.30;;;;;;;2.39;100.00;96771.38;4984787;28;24642;-70
2023/01/04 06:36:52;;;;;;;2.17;0.73;;;;;;;2.46;100.00;96776.41;4986177;28;24437;-72
2023/01/04 06:39:19;;;;;;;2.15;1.10;;;;;;;2.49;100.00;96772.09;4985542;28;24452;-72
2023/01/04 06:41:46;;;;;;;1.45;0.90;;;;;;;2.54;100.00;96772.88;4985169;28;24807;-72
2023/01/04 06:44:13;;;;;;;2.38;1.13;;;;;;;2.63;100.00;96757.41;4987386;28;24448;-72
2023/01/04 06:46:40;;;;;;;4.07;1.40;;;;;;;2.68;100.00;96749.66;4988207;28;24444;-72
2023/01/04 06:49:07;;;;;;;3.70;1.10;;;;;;;2.79;100.00;96755.44;4987810;28;24507;-72
2023/01/04 06:51:33;;;;;;;5.95;0.98;;;;;;;2.84;100.00;96766.41;4985063;28;24441;-72
2023/01/04 06:53:59;;;;;;;2.80;1.27;;;;;;;2.94;100.00;96750.94;4985333;28;24436;-72
2023/01/04 06:56:26;;;;;;;3.88;1.20;;;;;;;3.00;100.00;96758.47;4981261;28;24434;-73
2023/01/04 06:58:54;;;;;;;4.60;1.30;;;;;;;3.05;100.00;96743.91;4983495;28;24812;-72
2023/01/04 07:01:20;;;;;;;1.55;1.10;;;;;;;3.12;100.00;96743.78;4986102;28;24446;-73
2023/01/04 07:03:47;;;;;;;2.78;0.93;;;;;;;3.15;100.00;96745.41;4982784;28;24559;-72
2023/01/04 07:06:13;;;;;;;3.55;1.58;;;;;;;3.16;100.00;96749.69;4974973;28;24436;-71
2023/01/04 07:08:40;;;;;;;4.50;1.42;;;;;;;3.18;100.00;96752.19;4980779;28;24428;-71
2023/01/04 07:11:06;;;;;;;2.55;0.90;;;;;;;3.25;100.00;96754.63;4979338;28;24797;-71
2023/01/04 07:13:32;;;;;;;5.60;2.42;;;;;;;3.30;100.00;96751.97;4987578;28;24456;-71
2023/01/04 07:16:00;;;;;;;3.80;2.10;;;;;;;3.33;100.00;96749.34;4982575;28;24440;-71
2023/01/04 07:18:27;;;;;;;1.98;0.80;;;;;;;3.38;100.00;96752.69;4990487;28;24440;-72
2023/01/04 07:20:53;;;;;;;2.22;0.88;;;;;;;3.44;100.00;96764.53;4983823;28;24453;-73
2023/01/04 07:23:20;;;;;;;1.70;0.80;;;;;;;3.45;100.00;96759.41;4996934;28;24441;-74
2023/01/04 07:25:46;;;;;;;2.83;1.03;;;;;;;3.45;100.00;96764.50;4998058;28;24444;-73
2023/01/04 07:29:13;;;;;;;1.60;0.60;;;;;;;3.59;100.00;96747.13;5001342;28;24451;-73
2023/01/04 07:31:05;;;;;;;6.63;1.50;;;;;;;3.50;100.00;96747.34;5005699;28;24853;-73
2023/01/04 07:33:32;;;;;;;3.25;0.80;;;;;;;3.50;100.00;96752.44;5001858;28;24430;-73
2023/01/04 07:36:02;;;;;;;2.30;0.77;;;;;;;3.47;100.00;96752.50;5000526;28;24674;-73
2023/01/04 07:38:28;;;;;;;1.27;0.63;;;;;;;3.57;100.00;96748.91;4996664;28;24425;-73
2023/01/04 07:40:54;;;;;;;1.77;0.70;;;;;;;3.54;100.00;96740.44;5003853;28;24468;-73
2023/01/04 07:43:21;;;;;;;2.75;1.13;;;;;;;3.62;100.00;96729.16;4995967;28;24444;-73
2023/01/04 07:45:47;;;;;;;9.30;5.30;;;;;;;3.58;100.00;96721.56;5000454;28;24448;-73
2023/01/04 07:48:15;;;;;;;3.85;2.47;;;;;;;3.61;100.00;96724.91;4995672;28;24443;-73
2023/01/04 07:50:42;;;;;;;1.85;0.90;;;;;;;3.60;100.00;96722.41;5001320;28;24428;-73
2023/01/04 07:53:08;;;;;;;1.88;0.73;;;;;;;3.70;100.00;96725.59;4995679;28;24437;-73
2023/01/04 07:55:35;;;;;;;1.73;0.70;;;;;;;3.73;100.00;96723.81;4995830;28;24429;-73
2023/01/04 07:58:01;;;;;;;2.20;0.90;;;;;;;3.82;100.00;96727.88;4999656;28;24444;-73
2023/01/04 08:00:28;;;;;;;2.08;0.77;;;;;;;3.72;100.00;96721.28;4995815;28;24471;-73
2023/01/04 08:02:54;;;;;;;6.28;1.10;;;;;;;3.77;100.00;96722.88;4996291;28;24464;-73
2023/01/04 08:05:23;;;;;;;2.80;1.40;;;;;;;3.88;100.00;96712.41;5000175;28;24807;-73
2023/01/04 08:07:50;;;;;;;2.80;1.73;;;;;;;3.89;100.00;96706.38;5002764;28;24436;-73
2023/01/04 08:10:16;;;;;;;3.40;1.80;;;;;;;3.93;100.00;96713.16;4996536;28;25124;-73
2023/01/04 08:12:43;;;;;;;10.10;4.07;;;;;;;3.99;100.00;96713.00;5001852;28;24447;-73
2023/01/04 08:15:10;;;;;;;6.43;4.43;;;;;;;4.03;100.00;96706.94;4997819;28;24436;-73
2023/01/04 08:17:36;;;;;;;3.13;2.00;;;;;;;4.03;100.00;96706.09;4993456;28;24905;-73
2023/01/04 08:20:03;;;;;;;2.87;1.63;;;;;;;4.18;100.00;96702.34;4999900;28;24490;-74
2023/01/04 08:22:31;;;;;;;3.17;1.40;;;;;;;4.19;100.00;96699.75;4999136;28;24810;-73
2023/01/04 08:24:58;;;;;;;3.37;1.13;;;;;;;4.25;100.00;96709.03;4999541;28;24452;-73
2023/01/04 08:27:24;;;;;;;3.05;1.00;;;;;;;4.23;100.00;96697.97;4994442;28;24456;-73
2023/01/04 08:29:51;;;;;;;3.50;1.10;;;;;;;4.16;100.00;96699.84;4998864;28;24443;-74
2023/01/04 08:32:17;;;;;;;1.63;0.77;;;;;;;4.26;100.00;96700.44;4998385;28;24437;-74
2023/01/04 08:34:44;;;;;;;2.07;0.80;;;;;;;4.31;100.00;96698.63;4996622;28;24440;-73
2023/01/04 08:37:10;;;;;;;1.42;0.70;;;;;;;4.38;100.00;96695.06;4998110;28;24428;-74
2023/01/04 08:39:39;;;;;;;1.95;0.63;;;;;;;4.48;100.00;96691.38;5004044;28;24455;-73
2023/01/04 08:42:05;;;;;;;2.42;0.77;;;;;;;4.48;100.00;96683.66;4999592;28;24476;-73
2023/01/04 08:44:33;;;;;;;1.02;0.60;;;;;;;4.46;100.00;96685.44;5003726;28;24440;-73
2023/01/04 08:46:59;;;;;;;1.63;0.75;;;;;;;4.50;100.00;96686.22;4998146;28;24490;-73
2023/01/04 08:49:26;;;;;;;2.88;1.17;;;;;;;4.53;100.00;96681.84;4997575;28;24452;-73
2023/01/04 08:51:52;;;;;;;1.63;0.70;;;;;;;4.53;100.00;96663.91;5005194;28;24795;-74
2023/01/04 08:54:19;;;;;;;2.53;0.88;;;;;;;4.60;100.00;96667.16;4997790;28;24792;-73
2023/01/04 08:56:47;;;;;;;4.82;0.80;;;;;;;4.61;100.00;96672.25;4995374;28;24440;-73
2023/01/04 08:59:13;;;;;;;7.50;3.60;;;;;;;4.55;100.00;96666.41;5010968;28;24424;-73
2023/01/04 09:01:41;;;;;;;4.20;2.83;;;;;;;4.57;100.00;96670.63;5000788;28;24468;-73
2023/01/04 09:04:08;;;;;;;3.75;2.15;;;;;;;4.56;100.00;96675.78;5001697;28;24642;-73
2023/01/04 09:06:35;;;;;;;2.20;1.10;;;;;;;4.65;100.00;96683.28;5011255;28;24435;-73
2023/01/04 09:09:01;;;;;;;3.80;1.95;;;;;;;4.71;100.00;96683.13;5003129;28;24433;-73
2023/01/04 09:11:28;;;;;;;1.85;1.00;;;;;;;4.80;100.00;96685.44;5004045;28;24440;-74
2023/01/04 09:13:56;;;;;;;2.83;0.90;;;;;;;4.84;100.00;96673.38;5007694;28;24986;-73
2023/01/04 09:16:23;;;;;;;2.50;0.90;;;;;;;4.91;100.00;96664.66;5008385;28;24436;-73
2023/01/04 09:18:50;;;;;;;1.40;0.80;;;;;;;4.98;100.00;96673.88;5005031;28;24743;-73
2023/01/04 09:21:18;;;;;;;2.97;0.90;;;;;;;5.02;100.00;96672.06;5000533;28;24459;-73
2023/01/04 09:23:45;;;;;;;2.30;0.80;;;;;;;5.20;100.00;96665.59;4997220;28;24436;-73
2023/01/04 09:26:15;;;;;;;2.45;0.70;;;;;;;5.26;100.00;96671.38;5009563;28;24440;-72
2023/01/04 09:28:42;;;;;;;1.55;0.60;;;;;;;5.33;100.00;96678.03;5000917;28;24444;-73
2023/01/04 09:31:12;;;;;;;1.85;0.68;;;;;;;5.36;100.00;96684.00;5007133;28;24978;-73
2023/01/04 09:33:39;;;;;;;1.15;0.52;;;;;;;5.36;100.00;96692.53;5005490;28;24444;-73
2023/01/04 09:36:07;;;;;;;3.03;0.70;;;;;;;5.36;100.00;96689.13;5006675;28;24440;-73
2023/01/04 09:38:35;;;;;;;4.55;0.88;;;;;;;5.38;100.00;96692.47;5001624;28;24445;-73
2023/01/04 09:41:11;;;;;;;2.25;0.90;;;;;;;5.49;100.00;96683.63;5009019;28;24459;-73
2023/01/04 09:43:43;;;;;;;2.30;0.80;;;;;;;5.53;100.00;96685.22;5003668;28;24494;-74
2023/01/04 09:46:17;;;;;;;2.10;0.82;;;;;;;5.58;100.00;96693.63;5009619;28;24494;-74
2023/01/04 09:48:45;;;;;;;2.72;0.85;;;;;;;5.63;100.00;96687.50;5004860;28;24444;-74
2023/01/04 09:51:16;;;;;;;1.83;0.95;;;;;;;5.58;100.00;96685.91;5005016;28;25022;-74
2023/01/04 09:53:46;;;;;;;2.88;0.80;;;;;;;5.56;100.00;96686.84;4998548;28;24444;-73
2023/01/04 09:56:20;;;;;;;2.13;0.90;;;;;;;5.58;100.00;96690.22;5005219;28;24488;-74
2023/01/04 09:58:47;;;;;;;2.67;0.90;;;;;;;5.56;100.00;96669.72;5001309;28;24463;-75
2023/01/04 10:01:20;;;;;;;1.98;0.70;;;;;;;5.64;100.00;96674.63;5000394;28;24491;-74
2023/01/04 10:03:55;;;;;;;2.08;1.30;;;;;;;5.64;100.00;96666.09;5001162;28;25014;-75
2023/01/04 10:06:21;;;;;;;2.53;1.00;;;;;;;5.69;100.00;96672.75;5003371;28;24797;-75
2023/01/04 10:08:48;;;;;;;4.63;1.95;;;;;;;5.84;100.00;96679.19;5001023;28;24463;-74
2023/01/04 10:11:33;;;;;;;4.82;2.78;;;;;;;5.75;100.00;96667.44;5000652;28;24437;-75
2023/01/04 10:14:20;;;;;;;2.00;0.90;;;;;;;5.82;100.00;96655.22;4995702;28;24801;-74
2023/01/04 10:17:05;;;;;;;2.10;0.90;;;;;;;5.91;100.00;96662.69;4997577;28;24516;-73
2023/01/04 10:19:47;;;;;;;1.80;0.70;;;;;;;6.04;100.00;96655.47;5000599;28;24433;-74
2023/01/04 10:22:20;;;;;;;1.50;0.85;;;;;;;6.00;100.00;96657.28;5010407;28;24441;-72
2023/01/04 10:24:56;;;;;;;3.30;0.90;;;;;;;6.10;100.00;96652.72;5009854;28;20783;-72
2023/01/04 10:27:31;;;;;;;4.57;2.40;;;;;;;6.13;100.00;96655.19;5000388;28;24439;-72
2023/01/04 10:30:16;;;;;;;3.22;1.15;;;;;;;6.13;100.00;96660.34;5003328;28;24443;-72
2023/01/04 10:32:46;;;;;;;4.55;2.13;;;;;;;6.09;100.00;96645.88;5008397;28;24449;-72
2023/01/04 10:35:19;;;;;;;2.50;1.15;;;;;;;6.15;100.00;96637.97;5004135;28;24822;-72
2023/01/04 10:37:48;;;;;;;2.83;1.73;;;;;;;6.17;100.00;96628.47;5005991;28;24521;-71
2023/01/04 10:40:17;;;;;;;2.80;0.98;;;;;;;6.19;100.00;96631.00;5000878;28;24459;-71
2023/01/04 10:42:53;;;;;;;2.00;0.93;;;;;;;6.26;100.00;96614.47;5001066;28;24464;-72
2023/01/04 10:45:30;;;;;;;3.65;0.95;;;;;;;6.27;100.00;96599.00;5001808;28;24456;-73
2023/01/04 10:48:07;;;;;;;5.23;0.70;;;;;;;6.28;100.00;96605.81;5004154;28;24468;-73
2023/01/04 10:50:40;;;;;;;1.40;0.52;;;;;;;6.43;100.00;96603.66;5009120;28;24451;-73
2023/01/04 10:53:12;;;;;;;2.50;0.70;;;;;;;6.42;100.00;96602.81;5001348;28;24440;-73
2023/01/04 10:55:43;;;;;;;1.95;0.68;;;;;;;6.38;100.00;96603.81;4999561;28;24795;-73
2023/01/04 10:58:17;;;;;;;1.52;0.70;;;;;;;6.44;100.00;96590.72;5000519;28;24437;-72
2023/01/04 11:00:48;;;;;;;3.17;0.90;;;;;;;6.46;100.00;96603.56;5003139;28;24448;-72
2023/01/04 11:03:20;;;;;;;3.72;1.50;;;;;;;6.49;100.00;96586.28;5003953;28;24445;-73
2023/01/04 11:05:50;;;;;;;5.30;2.08;;;;;;;6.56;100.00;96592.03;4999798;28;24437;-73
2023/01/04 11:08:21;;;;;;;4.47;2.10;;;;;;;6.48;100.00;96594.88;5001390;28;24426;-73
2023/01/04 11:10:52;;;;;;;2.47;1.17;;;;;;;6.48;100.00;96587.16;4998485;28;25017;-72
2023/01/04 11:13:19;;;;;;;1.83;1.30;;;;;;;6.66;100.00;96585.69;5000578;28;25084;-73
2023/01/04 11:15:46;;;;;;;6.72;1.40;;;;;;;6.46;100.00;96583.81;4996653;28;24441;-73
2023/01/04 11:18:15;;;;;;;2.97;1.50;;;;;;;6.48;100.00;96591.47;5000908;28;24441;-73
2023/01/04 11:20:43;;;;;;;2.00;0.98;;;;;;;6.53;100.00;96594.75;4993416;28;24456;-73
2023/01/04 11:23:14;;;;;;;2.17;0.90;;;;;;;6.56;100.00;96586.88;4987736;28;24982;-73
2023/01/04 11:25:46;;;;;;;3.72;1.83;;;;;;;6.64;100.00;96584.09;4977036;28;24449;-72
2023/01/04 11:28:17;;;;;;;2.67;1.30;;;;;;;6.60;100.00;96585.91;4989330;28;25030;-73
2023/01/04 11:30:55;;;;;;;2.67;0.93;;;;;;;6.55;100.00;96578.34;4990148;28;24509;-73
2023/01/04 11:33:23;;;;;;;2.75;0.88;;;;;;;6.62;100.00;96581.53;4978945;28;21125;-73
2023/01/04 11:35:53;;;;;;;1.83;0.65;;;;;;;6.69;100.00;96577.88;4979198;28;24445;-73
2023/01/04 11:38:22;;;;;;;1.88;0.70;;;;;;;6.66;100.00;96574.56;4990465;28;24994;-73
2023/01/04 11:40:56;;;;;;;1.42;0.80;;;;;;;6.70;100.00;96574.38;4989603;28;24815;-73
2023/01/04 11:43:24;;;;;;;1.40;0.70;;;;;;;6.87;100.00;96570.41;4985793;28;20767;-73
2023/01/04 11:45:57;;;;;;;3.70;0.80;;;;;;;6.74;100.00;96575.13;4978177;28;24441;-73
2023/01/04 11:48:39;;;;;;;3.60;1.00;;;;;;;6.69;100.00;96570.16;4988509;28;20784;-72
2023/01/04 11:51:17;;;;;;;4.50;1.00;;;;;;;6.75;100.00;96569.94;4985467;28;20818;-73
2023/01/04 11:53:44;;;;;;;2.03;1.08;;;;;;;6.78;100.00;96563.81;4978914;28;20785;-73
2023/01/04 11:56:17;;;;;;;2.90;0.80;;;;;;;6.79;100.00;96557.81;4979685;28;24441;-77
2023/01/04 11:59:01;;;;;;;1.90;0.80;;;;;;;6.74;100.00;96554.53;4984520;28;20747;-73
2023/01/04 12:01:28;;;;;;;1.98;1.00;;;;;;;6.78;100.00;96564.66;4983892;28;20931;-74
2023/01/04 12:03:55;;;;;;;2.00;0.95;;;;;;;6.88;100.00;96557.47;4978463;28;24994;-73
2023/01/04 12:06:33;;;;;;;1.25;0.60;;;;;;;6.81;100.00;96570.63;4979887;28;24437;-73
2023/01/04 12:09:00;;;;;;;2.50;0.77;;;;;;;6.85;100.00;96561.88;4983556;28;20722;-72
2023/01/04 12:11:30;;;;;;;0.88;0.70;;;;;;;7.13;100.00;96565.16;4983234;28;24434;-72
2023/01/04 12:13:58;;;;;;;2.50;0.90;;;;;;;6.92;100.00;96566.75;4979033;28;20762;-72
2023/01/04 12:16:39;;;;;;;1.65;0.70;;;;;;;6.82;100.00;96555.09;4987491;28;24519;-72
2023/01/04 12:19:05;;;;;;;1.67;0.73;;;;;;;6.95;100.00;96568.41;4981789;28;24441;-72
2023/01/04 12:21:35;;;;;;;1.75;0.65;;;;;;;6.89;100.00;96555.72;4988057;28;20808;-72
2023/01/04 12:24:06;;;;;;;5.70;1.10;;;;;;;6.94;100.00;96569.28;4997413;28;20819;-72
2023/01/04 12:26:33;;;;;;;2.47;1.02;;;;;;;6.84;100.00;96557.63;4999608;28;24971;-72
2023/01/04 12:29:33;;;;;;;1.50;0.80;;;;;;;6.89;100.00;96554.00;5002355;28;24478;-72